Time;durP1;ratioP1;P1;durP2;ratioP2;P2;SDS_P1;SDS_P2;PMS_P1;PMS_P2;Temp;Humidity;BMP_temperature;BMP_pressure;BME280_temperature;BME280_humidity;BME280_pressure;Samples;Min_cycle;Max_cycle;Signal;HPM_P1;HPM_P2
2022/04/02 17:20:11;;;;;;;;;;;;;;;;;;1571372;27;83610;-64
2022/04/02 17:20:56;;;;;;;;;;;;;;;;;;1564698;27;83330;-64
2022/04/02 17:21:41;;;;;;;;;;;;;;;;;;1565254;27;83561;-63
2022/04/02 17:22:26;;;;;;;;;;;;;;;;;;1562337;27;86016;-63
2022/04/02 17:23:12;;;;;;;;;;;;;;;;;;1554193;27;89442;-64
2022/04/02 17:23:57;;;;;;;;;;;;;;;;;;1556194;27;85763;-55
2022/04/02 17:24:42;;;;;;;;;;;;;;;;;;1549172;27;87893;-56
2022/04/02 17:25:27;;;;;;;;;;;;;;;;;;1554035;27;87677;-50
2022/04/02 17:26:12;;;;;;;;;;;;;;;;;;1557433;27;87377;-53
2022/04/02 17:26:57;;;;;;;;;;;;;;;;;;1557615;27;87718;-53
2022/04/02 17:27:43;;;;;;;;;;;;;;;;;;1555196;27;87200;-54
2022/04/02 17:28:28;;;;;;;;;;;;;;;;;;1558005;27;84231;-51
2022/04/02 17:29:13;;;;;;;;;;;;;;;;;;1558392;27;83310;-54
2022/04/02 17:29:58;;;;;;;;;;;;;;;;;;1557634;28;86230;-56
2022/04/02 17:30:43;;;;;;;;;;;;;;;;;;1557654;27;87622;-58
2022/04/02 17:31:28;;;;;;;;;;;;;;;;;;1557738;28;87814;-54
2022/04/02 17:32:13;;;;;;;;;;;;;;;;;;1557617;28;87417;-53
2022/04/02 17:32:59;;;;;;;;;;;;;;;;;;1557190;27;89305;-55
2022/04/02 17:33:46;;;;;;;;;;;;;;;;;;1557409;28;90425;-53
2022/04/02 17:34:31;;;;;;;;;;;;;;;;;;1557899;28;83202;-55
2022/04/02 17:35:16;;;;;;;;;;;;;;;;;;1557369;28;87370;-53
2022/04/02 17:36:02;;;;;;;;;;;;;;;;;;1557648;28;91716;-54
2022/04/02 17:36:47;;;;;;;;;;;;;;;;;;1557535;28;85150;-55
2022/04/02 17:37:32;;;;;;;;;;;;;;;;;;1554696;28;87532;-52
2022/04/02 17:38:17;;;;;;;;;;;;;;;;;;1551326;28;90001;-52
2022/04/02 17:39:02;;;;;;;;;;;;;;;;;;1551404;28;89751;-53
2022/04/02 17:39:48;;;;;;;;;;;;;;;;;;1551213;28;83326;-53
2022/04/02 17:40:33;;;;;;;;;;;;;;;;;;1551622;28;88856;-56
2022/04/02 17:41:18;;;;;;;;;;;;;;;;;;1554293;28;88164;-57
2022/04/02 17:42:03;;;;;;;;;;;;;;;;;;1551075;28;87019;-54
2022/04/02 17:42:48;;;;;;;;;;;;;;;;;;1554100;27;87433;-51
2022/04/02 17:43:35;;;;;;;;;;;;;;;;;;1557497;28;84456;-52
2022/04/02 17:44:20;;;;;;;;;;;;;;;;;;1557523;28;88222;-53
2022/04/02 17:45:05;;;;;;;;;;;;;;;;;;1557480;27;87226;-55
2022/04/02 17:45:50;;;;;;;;;;;;;;;;;;1557546;27;87576;-53
2022/04/02 17:46:36;;;;;;;;;;;;;;;;;;1557677;27;89191;-54
2022/04/02 17:47:22;;;;;;;;;;;;;;;;;;1558268;27;89000;-54
2022/04/02 17:48:07;;;;;;;;;;;;;;;;;;1556882;27;87685;-53
2022/04/02 17:48:53;;;;;;;;;;;;;;;;;;1557401;28;86409;-56
2022/04/02 17:49:38;;;;;;;;;;;;;;;;;;1557438;28;92116;-57
2022/04/02 17:50:24;;;;;;;;;;;;;;;;;;1558009;27;86531;-54
2022/04/02 17:51:10;;;;;;;;;;;;;;;;;;1557578;28;83730;-54
2022/04/02 17:51:55;;;;;;;;;;;;;;;;;;1557515;28;86351;-54
2022/04/02 17:52:40;;;;;;;;;;;;;;;;;;1552940;28;89021;-54
2022/04/02 17:53:26;;;;;;;;;;;;;;;;;;1551534;28;86194;-55
2022/04/02 17:54:11;;;;;;;;;;;;;;;;;;1550839;28;85172;-55
2022/04/02 17:54:58;;;;;;;;;;;;;;;;;;1551169;28;86867;-57
2022/04/02 17:55:43;;;;;;;;;;;;;;;;;;1551322;28;91435;-53
2022/04/02 17:56:28;;;;;;;;;;;;;;;;;;1551523;28;88610;-54
2022/04/02 17:57:13;;;;;;;;;;;;;;;;;;1551241;28;87515;-55
2022/04/02 17:57:58;;;;;;;;;;;;;;;;;;1557185;28;88350;-55
2022/04/02 17:58:43;;;;;;;;;;;;;;;;;;1557358;28;86396;-57
2022/04/02 17:59:28;;;;;;;;;;;;;;;;;;1557597;27;88666;-54
2022/04/02 18:00:13;;;;;;;;;;;;;;;;;;1557562;27;86989;-56
2022/04/02 18:00:58;;;;;;;;;;;;;;;;;;1555024;27;87633;-54
2022/04/02 18:01:44;;;;;;;;;;;;;;;;;;1556980;28;86942;-55
2022/04/02 18:02:29;;;;;;;;;;;;;;;;;;1557557;27;90001;-57
2022/04/02 18:03:14;;;;;;;;;;;;;;;;;;1559983;27;90663;-55
2022/04/02 18:03:59;;;;;;;;;;;;;;;;;;1557257;27;93970;-53
2022/04/02 18:04:44;;;;;;;;;;;;;;;;;;1557254;27;89173;-54
2022/04/02 18:05:29;;;;;;;;;;;;;;;;;;1557750;27;91240;-55
2022/04/02 18:06:14;;;;;;;;;;;;;;;;;;1557495;27;91519;-55
2022/04/02 18:06:59;;;;;;;;;;;;;;;;;;1555401;27;89669;-54
2022/04/02 18:07:44;;;;;;;;;;;;;;;;;;1551668;28;89232;-53
2022/04/02 18:08:29;;;;;;;;;;;;;;;;;;1551477;28;92422;-56
2022/04/02 18:09:15;;;;;;;;;;;;;;;;;;1550843;28;91355;-54
2022/04/02 18:10:00;;;;;;;;;;;;;;;;;;1550900;28;90234;-53
2022/04/02 18:10:45;;;;;;;;;;;;;;;;;;1551176;28;90303;-54
2022/04/02 18:11:30;;;;;;;;;;;;;;;;;;1551570;28;90449;-55
2022/04/02 18:12:16;;;;;;;;;;;;;;;;;;1553033;28;89724;-56
2022/04/02 18:13:02;;;;;;;;;;;;;;;;;;1557508;27;85800;-52
2022/04/02 18:13:47;;;;;;;;;;;;;;;;;;1557271;27;91875;-51
2022/04/02 18:14:32;;;;;;;;;;;;;;;;;;1557657;27;91655;-56
2022/04/02 18:15:17;;;;;;;;;;;;;;;;;;1557428;27;88695;-55
2022/04/02 18:16:02;;;;;;;;;;;;;;;;;;1557262;28;92549;-54
2022/04/02 18:16:47;;;;;;;;;;;;;;;;;;1557359;28;90221;-54
2022/04/02 18:17:32;;;;;;;;;;;;;;;;;;1557641;27;91239;-56
2022/04/02 18:18:18;;;;;;;;;;;;;;;;;;1552734;27;93088;-56
2022/04/02 18:19:03;;;;;;;;;;;;;;;;;;1551136;28;93337;-54
2022/04/02 18:19:48;;;;;;;;;;;;;;;;;;1550885;28;93092;-55
2022/04/02 18:20:34;;;;;;;;;;;;;;;;;;1551708;28;82903;-54
2022/04/02 18:21:19;;;;;;;;;;;;;;;;;;1551445;28;85015;-53
2022/04/02 18:22:04;;;;;;;;;;;;;;;;;;1553009;28;88664;-56
2022/04/02 18:22:49;;;;;;;;;;;;;;;;;;1557323;27;90241;-56
2022/04/02 18:23:35;;;;;;;;;;;;;;;;;;1557130;27;89471;-55
2022/04/02 18:24:26;;;;;;;;;;;;;;;;;;1560394;28;88612;-54
2022/04/02 18:25:12;;;;;;;;;;;;;;;;;;1557633;27;90590;-54
2022/04/02 18:25:57;;;;;;;;;;;;;;;;;;1557350;28;91546;-56
2022/04/02 18:26:42;;;;;;;;;;;;;;;;;;1557131;27;94484;-50
2022/04/02 18:27:27;;;;;;;;;;;;;;;;;;1552970;27;91008;-50
2022/04/02 18:28:12;;;;;;;;;;;;;;;;;;1551145;28;86994;-50
2022/04/02 18:28:59;;;;;;;;;;;;;;;;;;1551002;28;90568;-53
2022/04/02 18:29:45;;;;;;;;;;;;;;;;;;1551285;28;83449;-49
2022/04/02 18:30:30;;;;;;;;;;;;;;;;;;1554511;28;90877;-53
2022/04/02 18:31:15;;;;;;;;;;;;;;;;;;1554391;27;90534;-53
2022/04/02 18:32:00;;;;;;;;;;;;;;;;;;1547161;28;91117;-53
2022/04/02 18:32:48;;;;;;;;;;;;;;;;;;1547034;28;92056;-53
2022/04/02 18:33:33;;;;;;;;;;;;;;;;;;1547655;28;83457;-52
2022/04/02 18:34:18;;;;;;;;;;;;;;;;;;1549002;28;95845;-51
2022/04/02 18:35:03;;;;;;;;;;;;;;;;;;1553487;28;83544;-53
2022/04/02 18:35:49;;;;;;;;;;;;;;;;;;1552936;28;93799;-52
2022/04/02 18:36:34;;;;;;;;;;;;;;;;;;1551466;28;87708;-47
2022/04/02 18:37:19;;;;;;;;;;;;;;;;;;1550844;28;95906;-49
2022/04/02 18:38:05;;;;;;;;;;;;;;;;;;1546742;28;93834;-47
2022/04/02 18:38:50;;;;;;;;;;;;;;;;;;1548933;28;93135;-47
2022/04/02 18:39:37;;;;;;;;;;;;;;;;;;1553205;28;90794;-49
2022/04/02 18:40:22;;;;;;;;;;;;;;;;;;1553050;28;91930;-48
2022/04/02 18:41:07;;;;;;;;;;;;;;;;;;1552820;28;90779;-48
2022/04/02 18:41:52;;;;;;;;;;;;;;;;;;1546955;28;94592;-48
2022/04/02 18:42:37;;;;;;;;;;;;;;;;;;1546775;28;90392;-50
2022/04/02 18:43:22;;;;;;;;;;;;;;;;;;1546917;28;92740;-51
2022/04/02 18:44:07;;;;;;;;;;;;;;;;;;1551482;28;92824;-52
2022/04/02 18:44:53;;;;;;;;;;;;;;;;;;1552934;28;89540;-52
2022/04/02 18:45:38;;;;;;;;;;;;;;;;;;1555638;28;89981;-52
2022/04/02 18:46:23;;;;;;;;;;;;;;;;;;1546752;28;90049;-53
2022/04/02 18:47:08;;;;;;;;;;;;;;;;;;1546627;28;90064;-49
2022/04/02 18:47:53;;;;;;;;;;;;;;;;;;1546967;28;88401;-51
2022/04/02 18:48:39;;;;;;;;;;;;;;;;;;1546922;28;87635;-55
2022/04/02 18:49:24;;;;;;;;;;;;;;;;;;1546924;28;90638;-51
2022/04/02 18:50:09;;;;;;;;;;;;;;;;;;1546639;28;92681;-49
2022/04/02 18:50:54;;;;;;;;;;;;;;;;;;1547124;28;88709;-50
2022/04/02 18:51:40;;;;;;;;;;;;;;;;;;1546882;28;87777;-49
2022/04/02 18:52:26;;;;;;;;;;;;;;;;;;1546624;28;86209;-49
2022/04/02 18:53:11;;;;;;;;;;;;;;;;;;1546662;28;89798;-51
2022/04/02 18:53:57;;;;;;;;;;;;;;;;;;1546619;28;90695;-51
2022/04/02 18:54:42;;;;;;;;;;;;;;;;;;1546802;28;90768;-50
2022/04/02 18:55:27;;;;;;;;;;;;;;;;;;1546723;28;89705;-59
2022/04/02 18:56:12;;;;;;;;;;;;;;;;;;1546411;28;91551;-59
2022/04/02 18:56:57;;;;;;;;;;;;;;;;;;1546143;28;88957;-57
